sensor_id;sensor_type;location;lat;lon;timestamp;P1;P2;P0
73517;PMS5003;61766;60.318;25.044;2022-08-21T00:00:14;11;11;
73517;PMS5003;61766;60.318;25.044;2022-08-21T00:02:43;17;16;
73517;PMS5003;61766;60.318;25.044;2022-08-21T00:05:04;14;13;
73517;PMS5003;61766;60.318;25.044;2022-08-21T00:07:29;10;10;
73517;PMS5003;61766;60.318;25.044;2022-08-21T00:09:55;14;13;
73517;PMS5003;61766;60.318;25.044;2022-08-21T00:12:21;12;11;
73517;PMS5003;61766;60.318;25.044;2022-08-21T00:14:47;12;12;
73517;PMS5003;61766;60.318;25.044;2022-08-21T00:17:12;14;12;
73517;PMS5003;61766;60.318;25.044;2022-08-21T00:19:39;10;10;
73517;PMS5003;61766;60.318;25.044;2022-08-21T00:22:03;15;14;
73517;PMS5003;61766;60.318;25.044;2022-08-21T00:24:29;12;11;
73517;PMS5003;61766;60.318;25.044;2022-08-21T00:26:55;11;11;
73517;PMS5003;61766;60.318;25.044;2022-08-21T00:29:20;12;12;
73517;PMS5003;61766;60.318;25.044;2022-08-21T00:31:46;12;12;
73517;PMS5003;61766;60.318;25.044;2022-08-21T00:34:12;10;10;
73517;PMS5003;61766;60.318;25.044;2022-08-21T00:36:37;13;12;
73517;PMS5003;61766;60.318;25.044;2022-08-21T00:39:03;11;11;
73517;PMS5003;61766;60.318;25.044;2022-08-21T00:41:29;13;12;
73517;PMS5003;61766;60.318;25.044;2022-08-21T00:43:54;14;14;
73517;PMS5003;61766;60.318;25.044;2022-08-21T00:46:20;14;13;
73517;PMS5003;61766;60.318;25.044;2022-08-21T00:48:45;15;14;
73517;PMS5003;61766;60.318;25.044;2022-08-21T00:51:11;15;15;
73517;PMS5003;61766;60.318;25.044;2022-08-21T00:53:37;10;10;
73517;PMS5003;61766;60.318;25.044;2022-08-21T00:56:03;12;12;
73517;PMS5003;61766;60.318;25.044;2022-08-21T00:58:27;12;12;
73517;PMS5003;61766;60.318;25.044;2022-08-21T01:00:53;12;12;
73517;PMS5003;61766;60.318;25.044;2022-08-21T01:03:21;10;10;
73517;PMS5003;61766;60.318;25.044;2022-08-21T01:05:45;11;11;
73517;PMS5003;61766;60.318;25.044;2022-08-21T01:10:36;12;11;
73517;PMS5003;61766;60.318;25.044;2022-08-21T01:13:01;10;10;
73517;PMS5003;61766;60.318;25.044;2022-08-21T01:15:28;12;11;
73517;PMS5003;61766;60.318;25.044;2022-08-21T01:17:52;11;11;
73517;PMS5003;61766;60.318;25.044;2022-08-21T01:20:18;11;11;
73517;PMS5003;61766;60.318;25.044;2022-08-21T01:22:44;13;13;
73517;PMS5003;61766;60.318;25.044;2022-08-21T01:25:10;13;13;
73517;PMS5003;61766;60.318;25.044;2022-08-21T01:27:35;15;14;
73517;PMS5003;61766;60.318;25.044;2022-08-21T01:30:04;12;12;
73517;PMS5003;61766;60.318;25.044;2022-08-21T01:32:27;14;13;
73517;PMS5003;61766;60.318;25.044;2022-08-21T01:34:52;10;10;
73517;PMS5003;61766;60.318;25.044;2022-08-21T01:37:19;12;12;
73517;PMS5003;61766;60.318;25.044;2022-08-21T01:39:44;12;11;
73517;PMS5003;61766;60.318;25.044;2022-08-21T01:42:09;12;11;
73517;PMS5003;61766;60.318;25.044;2022-08-21T01:44:35;13;12;
73517;PMS5003;61766;60.318;25.044;2022-08-21T01:47:03;10;10;
73517;PMS5003;61766;60.318;25.044;2022-08-21T01:49:26;9;9;
73517;PMS5003;61766;60.318;25.044;2022-08-21T01:51:51;13;13;
73517;PMS5003;61766;60.318;25.044;2022-08-21T01:54:17;13;13;
73517;PMS5003;61766;60.318;25.044;2022-08-21T01:56:44;14;13;
73517;PMS5003;61766;60.318;25.044;2022-08-21T01:59:08;10;10;
73517;PMS5003;61766;60.318;25.044;2022-08-21T02:01:34;11;11;
73517;PMS5003;61766;60.318;25.044;2022-08-21T02:03:59;11;11;
73517;PMS5003;61766;60.318;25.044;2022-08-21T02:06:25;15;14;
73517;PMS5003;61766;60.318;25.044;2022-08-21T02:08:51;12;12;
73517;PMS5003;61766;60.318;25.044;2022-08-21T02:11:16;11;11;
73517;PMS5003;61766;60.318;25.044;2022-08-21T02:13:42;14;13;
73517;PMS5003;61766;60.318;25.044;2022-08-21T02:16:08;12;11;
73517;PMS5003;61766;60.318;25.044;2022-08-21T02:18:34;11;11;
73517;PMS5003;61766;60.318;25.044;2022-08-21T02:20:59;12;11;
73517;PMS5003;61766;60.318;25.044;2022-08-21T02:25:50;13;13;
73517;PMS5003;61766;60.318;25.044;2022-08-21T02:28:16;12;12;
73517;PMS5003;61766;60.318;25.044;2022-08-21T02:30:42;12;12;
73517;PMS5003;61766;60.318;25.044;2022-08-21T02:33:08;11;11;
73517;PMS5003;61766;60.318;25.044;2022-08-21T02:35:32;12;12;
73517;PMS5003;61766;60.318;25.044;2022-08-21T02:37:59;12;11;
73517;PMS5003;61766;60.318;25.044;2022-08-21T02:40:25;14;14;
73517;PMS5003;61766;60.318;25.044;2022-08-21T02:42:49;13;12;
73517;PMS5003;61766;60.318;25.044;2022-08-21T02:45:15;13;13;
73517;PMS5003;61766;60.318;25.044;2022-08-21T02:47:40;11;11;
73517;PMS5003;61766;60.318;25.044;2022-08-21T02:50:06;14;13;
73517;PMS5003;61766;60.318;25.044;2022-08-21T02:52:31;13;12;
73517;PMS5003;61766;60.318;25.044;2022-08-21T02:54:57;12;12;
73517;PMS5003;61766;60.318;25.044;2022-08-21T02:57:23;11;11;
73517;PMS5003;61766;60.318;25.044;2022-08-21T02:59:48;11;11;
73517;PMS5003;61766;60.318;25.044;2022-08-21T03:02:13;13;12;
73517;PMS5003;61766;60.318;25.044;2022-08-21T03:04:39;13;13;
73517;PMS5003;61766;60.318;25.044;2022-08-21T03:07:05;11;11;
73517;PMS5003;61766;60.318;25.044;2022-08-21T03:09:31;14;12;
73517;PMS5003;61766;60.318;25.044;2022-08-21T03:11:56;13;12;
73517;PMS5003;61766;60.318;25.044;2022-08-21T03:14:22;10;10;
73517;PMS5003;61766;60.318;25.044;2022-08-21T03:16:48;12;12;
73517;PMS5003;61766;60.318;25.044;2022-08-21T03:19:14;10;9;
73517;PMS5003;61766;60.318;25.044;2022-08-21T03:21:39;11;11;
73517;PMS5003;61766;60.318;25.044;2022-08-21T03:24:05;12;12;
73517;PMS5003;61766;60.318;25.044;2022-08-21T03:26:30;14;14;
73517;PMS5003;61766;60.318;25.044;2022-08-21T03:28:56;12;12;
73517;PMS5003;61766;60.318;25.044;2022-08-21T03:31:21;14;13;
73517;PMS5003;61766;60.318;25.044;2022-08-21T03:33:47;14;14;
73517;PMS5003;61766;60.318;25.044;2022-08-21T03:36:12;15;14;
73517;PMS5003;61766;60.318;25.044;2022-08-21T03:38:37;15;14;
73517;PMS5003;61766;60.318;25.044;2022-08-21T03:41:03;15;14;
73517;PMS5003;61766;60.318;25.044;2022-08-21T03:43:28;17;17;
73517;PMS5003;61766;60.318;25.044;2022-08-21T03:45:54;13;13;
73517;PMS5003;61766;60.318;25.044;2022-08-21T03:48:19;11;11;
73517;PMS5003;61766;60.318;25.044;2022-08-21T03:50:45;13;12;
73517;PMS5003;61766;60.318;25.044;2022-08-21T03:53:11;14;13;
73517;PMS5003;61766;60.318;25.044;2022-08-21T03:55:36;13;13;
73517;PMS5003;61766;60.318;25.044;2022-08-21T03:58:02;12;11;
73517;PMS5003;61766;60.318;25.044;2022-08-21T04:00:27;14;13;
73517;PMS5003;61766;60.318;25.044;2022-08-21T04:02:52;12;12;
73517;PMS5003;61766;60.318;25.044;2022-08-21T04:05:18;13;12;
73517;PMS5003;61766;60.318;25.044;2022-08-21T04:07:43;12;12;
73517;PMS5003;61766;60.318;25.044;2022-08-21T04:10:09;12;12;
73517;PMS5003;61766;60.318;25.044;2022-08-21T04:12:35;13;13;
73517;PMS5003;61766;60.318;25.044;2022-08-21T04:15:00;17;17;
73517;PMS5003;61766;60.318;25.044;2022-08-21T04:17:26;14;13;
73517;PMS5003;61766;60.318;25.044;2022-08-21T04:19:51;13;13;
73517;PMS5003;61766;60.318;25.044;2022-08-21T04:22:17;15;15;
73517;PMS5003;61766;60.318;25.044;2022-08-21T04:24:43;15;14;
73517;PMS5003;61766;60.318;25.044;2022-08-21T04:27:08;13;13;
73517;PMS5003;61766;60.318;25.044;2022-08-21T04:29:34;15;13;
73517;PMS5003;61766;60.318;25.044;2022-08-21T04:31:59;17;15;
73517;PMS5003;61766;60.318;25.044;2022-08-21T04:34:25;13;13;
73517;PMS5003;61766;60.318;25.044;2022-08-21T04:36:50;12;12;
73517;PMS5003;61766;60.318;25.044;2022-08-21T04:39:16;13;12;
73517;PMS5003;61766;60.318;25.044;2022-08-21T04:41:42;15;14;
73517;PMS5003;61766;60.318;25.044;2022-08-21T04:44:07;17;16;
73517;PMS5003;61766;60.318;25.044;2022-08-21T04:46:32;12;12;
73517;PMS5003;61766;60.318;25.044;2022-08-21T04:48:58;16;15;
73517;PMS5003;61766;60.318;25.044;2022-08-21T04:51:24;14;14;
73517;PMS5003;61766;60.318;25.044;2022-08-21T04:53:50;14;14;
73517;PMS5003;61766;60.318;25.044;2022-08-21T04:56:17;13;13;
73517;PMS5003;61766;60.318;25.044;2022-08-21T04:58:40;16;15;
73517;PMS5003;61766;60.318;25.044;2022-08-21T05:01:07;15;14;
73517;PMS5003;61766;60.318;25.044;2022-08-21T05:03:32;14;13;
73517;PMS5003;61766;60.318;25.044;2022-08-21T05:05:56;18;18;
73517;PMS5003;61766;60.318;25.044;2022-08-21T05:08:21;15;15;
73517;PMS5003;61766;60.318;25.044;2022-08-21T05:10:47;16;15;
73517;PMS5003;61766;60.318;25.044;2022-08-21T05:13:13;15;15;
73517;PMS5003;61766;60.318;25.044;2022-08-21T05:15:38;14;14;
73517;PMS5003;61766;60.318;25.044;2022-08-21T05:18:04;15;14;
73517;PMS5003;61766;60.318;25.044;2022-08-21T05:20:29;14;13;
73517;PMS5003;61766;60.318;25.044;2022-08-21T05:22:55;15;15;
73517;PMS5003;61766;60.318;25.044;2022-08-21T05:25:21;14;13;
73517;PMS5003;61766;60.318;25.044;2022-08-21T05:27:46;18;17;
73517;PMS5003;61766;60.318;25.044;2022-08-21T05:30:12;17;16;
73517;PMS5003;61766;60.318;25.044;2022-08-21T05:32:37;13;13;
73517;PMS5003;61766;60.318;25.044;2022-08-21T05:35:03;18;16;
73517;PMS5003;61766;60.318;25.044;2022-08-21T05:37:28;16;16;
73517;PMS5003;61766;60.318;25.044;2022-08-21T05:39:54;13;12;
73517;PMS5003;61766;60.318;25.044;2022-08-21T05:42:19;15;12;
73517;PMS5003;61766;60.318;25.044;2022-08-21T05:44:45;13;13;
73517;PMS5003;61766;60.318;25.044;2022-08-21T05:47:11;16;15;
73517;PMS5003;61766;60.318;25.044;2022-08-21T05:49:37;16;14;
73517;PMS5003;61766;60.318;25.044;2022-08-21T05:52:03;13;12;
73517;PMS5003;61766;60.318;25.044;2022-08-21T05:54:27;19;16;
73517;PMS5003;61766;60.318;25.044;2022-08-21T05:56:53;16;15;
73517;PMS5003;61766;60.318;25.044;2022-08-21T05:59:19;16;15;
73517;PMS5003;61766;60.318;25.044;2022-08-21T06:01:44;14;14;
73517;PMS5003;61766;60.318;25.044;2022-08-21T06:04:09;15;15;
73517;PMS5003;61766;60.318;25.044;2022-08-21T06:06:34;14;13;
73517;PMS5003;61766;60.318;25.044;2022-08-21T06:09:00;14;13;
73517;PMS5003;61766;60.318;25.044;2022-08-21T06:11:25;16;15;
73517;PMS5003;61766;60.318;25.044;2022-08-21T06:13:51;13;13;
73517;PMS5003;61766;60.318;25.044;2022-08-21T06:16:17;14;14;
73517;PMS5003;61766;60.318;25.044;2022-08-21T06:18:43;14;13;
73517;PMS5003;61766;60.318;25.044;2022-08-21T06:21:08;11;11;
73517;PMS5003;61766;60.318;25.044;2022-08-21T06:23:34;18;18;
73517;PMS5003;61766;60.318;25.044;2022-08-21T06:25:59;16;16;
73517;PMS5003;61766;60.318;25.044;2022-08-21T06:28:24;13;13;
73517;PMS5003;61766;60.318;25.044;2022-08-21T06:30:50;15;15;
73517;PMS5003;61766;60.318;25.044;2022-08-21T06:33:16;17;15;
73517;PMS5003;61766;60.318;25.044;2022-08-21T06:35:41;14;13;
73517;PMS5003;61766;60.318;25.044;2022-08-21T06:38:06;14;14;
73517;PMS5003;61766;60.318;25.044;2022-08-21T06:40:32;16;13;
73517;PMS5003;61766;60.318;25.044;2022-08-21T06:42:58;19;17;
73517;PMS5003;61766;60.318;25.044;2022-08-21T06:45:23;15;15;
73517;PMS5003;61766;60.318;25.044;2022-08-21T06:47:49;15;15;
73517;PMS5003;61766;60.318;25.044;2022-08-21T06:50:14;17;17;
73517;PMS5003;61766;60.318;25.044;2022-08-21T06:52:40;16;14;
73517;PMS5003;61766;60.318;25.044;2022-08-21T06:55:06;19;16;
73517;PMS5003;61766;60.318;25.044;2022-08-21T06:57:31;14;14;
73517;PMS5003;61766;60.318;25.044;2022-08-21T06:59:56;18;16;
73517;PMS5003;61766;60.318;25.044;2022-08-21T07:02:22;19;15;
73517;PMS5003;61766;60.318;25.044;2022-08-21T07:04:47;24;22;
73517;PMS5003;61766;60.318;25.044;2022-08-21T07:07:13;16;16;
73517;PMS5003;61766;60.318;25.044;2022-08-21T07:09:38;17;15;
73517;PMS5003;61766;60.318;25.044;2022-08-21T07:12:04;15;13;
73517;PMS5003;61766;60.318;25.044;2022-08-21T07:14:30;15;15;
73517;PMS5003;61766;60.318;25.044;2022-08-21T07:16:55;15;15;
73517;PMS5003;61766;60.318;25.044;2022-08-21T07:19:21;13;13;
73517;PMS5003;61766;60.318;25.044;2022-08-21T07:21:46;18;18;
73517;PMS5003;61766;60.318;25.044;2022-08-21T07:24:12;18;17;
73517;PMS5003;61766;60.318;25.044;2022-08-21T07:26:37;16;16;
73517;PMS5003;61766;60.318;25.044;2022-08-21T07:29:02;13;12;
73517;PMS5003;61766;60.318;25.044;2022-08-21T07:31:28;16;16;
73517;PMS5003;61766;60.318;25.044;2022-08-21T07:33:54;13;13;
73517;PMS5003;61766;60.318;25.044;2022-08-21T07:36:19;15;14;
73517;PMS5003;61766;60.318;25.044;2022-08-21T07:38:44;13;12;
73517;PMS5003;61766;60.318;25.044;2022-08-21T07:41:13;15;14;
73517;PMS5003;61766;60.318;25.044;2022-08-21T07:43:36;14;13;
73517;PMS5003;61766;60.318;25.044;2022-08-21T07:46:02;16;15;
73517;PMS5003;61766;60.318;25.044;2022-08-21T07:48:27;14;14;
73517;PMS5003;61766;60.318;25.044;2022-08-21T07:50:52;11;11;
73517;PMS5003;61766;60.318;25.044;2022-08-21T07:53:18;15;15;
73517;PMS5003;61766;60.318;25.044;2022-08-21T07:55:44;19;17;
73517;PMS5003;61766;60.318;25.044;2022-08-21T07:58:09;12;12;
73517;PMS5003;61766;60.318;25.044;2022-08-21T08:00:35;15;14;
73517;PMS5003;61766;60.318;25.044;2022-08-21T08:03:01;16;14;
73517;PMS5003;61766;60.318;25.044;2022-08-21T08:05:28;23;21;
73517;PMS5003;61766;60.318;25.044;2022-08-21T08:07:51;18;17;
73517;PMS5003;61766;60.318;25.044;2022-08-21T08:10:17;13;13;
73517;PMS5003;61766;60.318;25.044;2022-08-21T08:12:42;16;14;
73517;PMS5003;61766;60.318;25.044;2022-08-21T08:15:09;16;16;
73517;PMS5003;61766;60.318;25.044;2022-08-21T08:17:33;14;14;
73517;PMS5003;61766;60.318;25.044;2022-08-21T08:19:59;16;15;
73517;PMS5003;61766;60.318;25.044;2022-08-21T08:22:24;14;14;
73517;PMS5003;61766;60.318;25.044;2022-08-21T08:24:50;12;12;
73517;PMS5003;61766;60.318;25.044;2022-08-21T08:27:16;21;19;
73517;PMS5003;61766;60.318;25.044;2022-08-21T08:29:42;18;15;
73517;PMS5003;61766;60.318;25.044;2022-08-21T08:32:07;13;13;
73517;PMS5003;61766;60.318;25.044;2022-08-21T08:34:32;18;17;
73517;PMS5003;61766;60.318;25.044;2022-08-21T08:36:58;15;14;
73517;PMS5003;61766;60.318;25.044;2022-08-21T08:39:23;19;17;
73517;PMS5003;61766;60.318;25.044;2022-08-21T08:41:48;23;22;
73517;PMS5003;61766;60.318;25.044;2022-08-21T08:44:13;19;18;
73517;PMS5003;61766;60.318;25.044;2022-08-21T08:46:40;17;16;
73517;PMS5003;61766;60.318;25.044;2022-08-21T08:49:06;19;16;
73517;PMS5003;61766;60.318;25.044;2022-08-21T08:51:33;20;18;
73517;PMS5003;61766;60.318;25.044;2022-08-21T08:53:57;16;16;
73517;PMS5003;61766;60.318;25.044;2022-08-21T08:56:22;15;15;
73517;PMS5003;61766;60.318;25.044;2022-08-21T08:58:46;15;14;
73517;PMS5003;61766;60.318;25.044;2022-08-21T09:01:13;15;15;
73517;PMS5003;61766;60.318;25.044;2022-08-21T09:03:37;18;15;
73517;PMS5003;61766;60.318;25.044;2022-08-21T09:06:04;16;14;
73517;PMS5003;61766;60.318;25.044;2022-08-21T09:08:34;20;17;
73517;PMS5003;61766;60.318;25.044;2022-08-21T09:10:59;19;18;
73517;PMS5003;61766;60.318;25.044;2022-08-21T09:13:19;19;18;
73517;PMS5003;61766;60.318;25.044;2022-08-21T09:15:48;19;17;
73517;PMS5003;61766;60.318;25.044;2022-08-21T09:18:15;17;16;
73517;PMS5003;61766;60.318;25.044;2022-08-21T09:20:37;18;16;
73517;PMS5003;61766;60.318;25.044;2022-08-21T09:23:04;17;15;
73517;PMS5003;61766;60.318;25.044;2022-08-21T09:25:27;15;14;
73517;PMS5003;61766;60.318;25.044;2022-08-21T09:27:51;18;16;
73517;PMS5003;61766;60.318;25.044;2022-08-21T09:30:17;20;18;
73517;PMS5003;61766;60.318;25.044;2022-08-21T09:32:42;17;17;
73517;PMS5003;61766;60.318;25.044;2022-08-21T09:35:08;15;13;
73517;PMS5003;61766;60.318;25.044;2022-08-21T09:37:33;15;14;
73517;PMS5003;61766;60.318;25.044;2022-08-21T09:39:58;17;16;
73517;PMS5003;61766;60.318;25.044;2022-08-21T09:42:25;17;16;
73517;PMS5003;61766;60.318;25.044;2022-08-21T09:44:50;17;16;
73517;PMS5003;61766;60.318;25.044;2022-08-21T09:47:18;15;14;
73517;PMS5003;61766;60.318;25.044;2022-08-21T09:49:40;17;16;
73517;PMS5003;61766;60.318;25.044;2022-08-21T09:52:10;18;17;
73517;PMS5003;61766;60.318;25.044;2022-08-21T09:54:31;20;17;
73517;PMS5003;61766;60.318;25.044;2022-08-21T09:56:56;18;16;
73517;PMS5003;61766;60.318;25.044;2022-08-21T09:59:25;18;17;
73517;PMS5003;61766;60.318;25.044;2022-08-21T10:01:47;19;17;
73517;PMS5003;61766;60.318;25.044;2022-08-21T10:04:12;20;20;
73517;PMS5003;61766;60.318;25.044;2022-08-21T10:06:37;18;16;
73517;PMS5003;61766;60.318;25.044;2022-08-21T10:09:04;19;17;
73517;PMS5003;61766;60.318;25.044;2022-08-21T10:11:28;18;16;
73517;PMS5003;61766;60.318;25.044;2022-08-21T10:13:56;15;14;
73517;PMS5003;61766;60.318;25.044;2022-08-21T10:16:24;17;15;
73517;PMS5003;61766;60.318;25.044;2022-08-21T10:18:46;17;17;
73517;PMS5003;61766;60.318;25.044;2022-08-21T10:21:13;23;20;
73517;PMS5003;61766;60.318;25.044;2022-08-21T10:23:40;19;18;
73517;PMS5003;61766;60.318;25.044;2022-08-21T10:26:04;17;16;
73517;PMS5003;61766;60.318;25.044;2022-08-21T10:28:28;24;21;
73517;PMS5003;61766;60.318;25.044;2022-08-21T10:30:56;17;17;
73517;PMS5003;61766;60.318;25.044;2022-08-21T10:33:22;19;17;
73517;PMS5003;61766;60.318;25.044;2022-08-21T10:35:44;18;17;
73517;PMS5003;61766;60.318;25.044;2022-08-21T10:38:16;20;19;
73517;PMS5003;61766;60.318;25.044;2022-08-21T10:40:34;21;19;
73517;PMS5003;61766;60.318;25.044;2022-08-21T10:43:02;20;19;
73517;PMS5003;61766;60.318;25.044;2022-08-21T10:45:28;16;15;
73517;PMS5003;61766;60.318;25.044;2022-08-21T10:47:50;19;18;
73517;PMS5003;61766;60.318;25.044;2022-08-21T10:50:18;17;17;
73517;PMS5003;61766;60.318;25.044;2022-08-21T10:52:45;19;18;
73517;PMS5003;61766;60.318;25.044;2022-08-21T10:57:33;17;17;
73517;PMS5003;61766;60.318;25.044;2022-08-21T10:59:57;21;19;
73517;PMS5003;61766;60.318;25.044;2022-08-21T11:02:23;22;21;
73517;PMS5003;61766;60.318;25.044;2022-08-21T11:04:49;22;21;
73517;PMS5003;61766;60.318;25.044;2022-08-21T11:07:14;22;21;
73517;PMS5003;61766;60.318;25.044;2022-08-21T11:09:38;18;18;
73517;PMS5003;61766;60.318;25.044;2022-08-21T11:12:05;21;20;
73517;PMS5003;61766;60.318;25.044;2022-08-21T11:14:31;18;17;
73517;PMS5003;61766;60.318;25.044;2022-08-21T11:16:56;22;21;
73517;PMS5003;61766;60.318;25.044;2022-08-21T11:19:21;23;20;
73517;PMS5003;61766;60.318;25.044;2022-08-21T11:21:46;19;19;
73517;PMS5003;61766;60.318;25.044;2022-08-21T11:24:15;23;22;
73517;PMS5003;61766;60.318;25.044;2022-08-21T11:26:37;24;22;
73517;PMS5003;61766;60.318;25.044;2022-08-21T11:29:04;22;21;
73517;PMS5003;61766;60.318;25.044;2022-08-21T11:31:31;26;24;
73517;PMS5003;61766;60.318;25.044;2022-08-21T11:33:56;22;21;
73517;PMS5003;61766;60.318;25.044;2022-08-21T11:36:20;24;24;
73517;PMS5003;61766;60.318;25.044;2022-08-21T11:38:45;24;21;
73517;PMS5003;61766;60.318;25.044;2022-08-21T11:41:25;23;20;
73517;PMS5003;61766;60.318;25.044;2022-08-21T11:43:37;22;22;
73517;PMS5003;61766;60.318;25.044;2022-08-21T11:46:02;26;21;
73517;PMS5003;61766;60.318;25.044;2022-08-21T11:48:31;25;24;
73517;PMS5003;61766;60.318;25.044;2022-08-21T11:50:50;22;20;
73517;PMS5003;61766;60.318;25.044;2022-08-21T11:53:16;23;21;
73517;PMS5003;61766;60.318;25.044;2022-08-21T11:55:43;23;21;
73517;PMS5003;61766;60.318;25.044;2022-08-21T11:58:07;21;19;
73517;PMS5003;61766;60.318;25.044;2022-08-21T12:00:33;21;21;
73517;PMS5003;61766;60.318;25.044;2022-08-21T12:05:25;24;23;
73517;PMS5003;61766;60.318;25.044;2022-08-21T12:07:58;21;21;
73517;PMS5003;61766;60.318;25.044;2022-08-21T12:10:15;23;21;
73517;PMS5003;61766;60.318;25.044;2022-08-21T12:12:40;24;23;
73517;PMS5003;61766;60.318;25.044;2022-08-21T12:17:35;26;25;
73517;PMS5003;61766;60.318;25.044;2022-08-21T12:19:57;23;23;
73517;PMS5003;61766;60.318;25.044;2022-08-21T12:22:21;21;21;
73517;PMS5003;61766;60.318;25.044;2022-08-21T12:24:48;24;21;
73517;PMS5003;61766;60.318;25.044;2022-08-21T12:27:13;27;26;
73517;PMS5003;61766;60.318;25.044;2022-08-21T12:29:38;30;29;
73517;PMS5003;61766;60.318;25.044;2022-08-21T12:32:04;23;22;
73517;PMS5003;61766;60.318;25.044;2022-08-21T12:34:31;26;26;
73517;PMS5003;61766;60.318;25.044;2022-08-21T12:36:55;28;27;
73517;PMS5003;61766;60.318;25.044;2022-08-21T12:39:22;27;25;
73517;PMS5003;61766;60.318;25.044;2022-08-21T12:41:46;23;22;
73517;PMS5003;61766;60.318;25.044;2022-08-21T12:44:12;23;23;
73517;PMS5003;61766;60.318;25.044;2022-08-21T12:46:37;25;24;
73517;PMS5003;61766;60.318;25.044;2022-08-21T12:49:03;28;26;
73517;PMS5003;61766;60.318;25.044;2022-08-21T12:51:29;25;23;
73517;PMS5003;61766;60.318;25.044;2022-08-21T12:53:53;22;21;
73517;PMS5003;61766;60.318;25.044;2022-08-21T12:56:18;25;22;
73517;PMS5003;61766;60.318;25.044;2022-08-21T12:58:44;28;28;
73517;PMS5003;61766;60.318;25.044;2022-08-21T13:01:14;26;23;
73517;PMS5003;61766;60.318;25.044;2022-08-21T13:03:35;26;26;
73517;PMS5003;61766;60.318;25.044;2022-08-21T13:05:58;26;24;
73517;PMS5003;61766;60.318;25.044;2022-08-21T13:08:24;25;23;
73517;PMS5003;61766;60.318;25.044;2022-08-21T13:10:49;23;23;
73517;PMS5003;61766;60.318;25.044;2022-08-21T13:13:17;27;24;
73517;PMS5003;61766;60.318;25.044;2022-08-21T13:15:41;29;27;
73517;PMS5003;61766;60.318;25.044;2022-08-21T13:18:06;25;23;
73517;PMS5003;61766;60.318;25.044;2022-08-21T13:20:32;22;21;
73517;PMS5003;61766;60.318;25.044;2022-08-21T13:22:57;28;26;
73517;PMS5003;61766;60.318;25.044;2022-08-21T13:25:25;26;25;
73517;PMS5003;61766;60.318;25.044;2022-08-21T13:30:17;25;24;
73517;PMS5003;61766;60.318;25.044;2022-08-21T13:32:41;30;28;
73517;PMS5003;61766;60.318;25.044;2022-08-21T13:35:09;27;26;
73517;PMS5003;61766;60.318;25.044;2022-08-21T13:37:30;25;24;
73517;PMS5003;61766;60.318;25.044;2022-08-21T13:39:56;27;26;
73517;PMS5003;61766;60.318;25.044;2022-08-21T13:42:21;25;23;
73517;PMS5003;61766;60.318;25.044;2022-08-21T13:44:47;23;23;
73517;PMS5003;61766;60.318;25.044;2022-08-21T13:47:13;24;24;
73517;PMS5003;61766;60.318;25.044;2022-08-21T13:49:38;30;29;
73517;PMS5003;61766;60.318;25.044;2022-08-21T13:52:03;24;23;
73517;PMS5003;61766;60.318;25.044;2022-08-21T13:54:33;30;29;
73517;PMS5003;61766;60.318;25.044;2022-08-21T13:56:54;28;25;
73517;PMS5003;61766;60.318;25.044;2022-08-21T13:59:25;30;29;
73517;PMS5003;61766;60.318;25.044;2022-08-21T14:01:49;31;31;
73517;PMS5003;61766;60.318;25.044;2022-08-21T14:04:15;28;28;
73517;PMS5003;61766;60.318;25.044;2022-08-21T14:06:36;30;25;
73517;PMS5003;61766;60.318;25.044;2022-08-21T14:09:03;26;25;
73517;PMS5003;61766;60.318;25.044;2022-08-21T14:11:27;23;23;
73517;PMS5003;61766;60.318;25.044;2022-08-21T14:13:56;26;26;
73517;PMS5003;61766;60.318;25.044;2022-08-21T14:16:18;24;24;
73517;PMS5003;61766;60.318;25.044;2022-08-21T14:18:45;28;27;
73517;PMS5003;61766;60.318;25.044;2022-08-21T14:21:08;24;23;
73517;PMS5003;61766;60.318;25.044;2022-08-21T14:23:33;27;26;
73517;PMS5003;61766;60.318;25.044;2022-08-21T14:25:59;26;25;
73517;PMS5003;61766;60.318;25.044;2022-08-21T14:28:25;26;26;
73517;PMS5003;61766;60.318;25.044;2022-08-21T14:30:49;26;25;
73517;PMS5003;61766;60.318;25.044;2022-08-21T14:33:18;31;30;
73517;PMS5003;61766;60.318;25.044;2022-08-21T14:35:40;26;26;
73517;PMS5003;61766;60.318;25.044;2022-08-21T14:40:32;25;25;
73517;PMS5003;61766;60.318;25.044;2022-08-21T14:42:56;23;22;
73517;PMS5003;61766;60.318;25.044;2022-08-21T14:45:23;22;22;
73517;PMS5003;61766;60.318;25.044;2022-08-21T14:47:46;26;25;
73517;PMS5003;61766;60.318;25.044;2022-08-21T14:50:12;25;25;
73517;PMS5003;61766;60.318;25.044;2022-08-21T14:52:37;26;23;
73517;PMS5003;61766;60.318;25.044;2022-08-21T14:55:03;23;23;
73517;PMS5003;61766;60.318;25.044;2022-08-21T14:57:29;20;20;
73517;PMS5003;61766;60.318;25.044;2022-08-21T14:59:53;21;21;
73517;PMS5003;61766;60.318;25.044;2022-08-21T15:02:18;21;20;
73517;PMS5003;61766;60.318;25.044;2022-08-21T15:04:44;27;25;
73517;PMS5003;61766;60.318;25.044;2022-08-21T15:07:10;29;24;
73517;PMS5003;61766;60.318;25.044;2022-08-21T15:09:35;18;17;
73517;PMS5003;61766;60.318;25.044;2022-08-21T15:12:01;21;21;
73517;PMS5003;61766;60.318;25.044;2022-08-21T15:14:26;19;19;
73517;PMS5003;61766;60.318;25.044;2022-08-21T15:16:51;34;28;
73517;PMS5003;61766;60.318;25.044;2022-08-21T15:19:16;25;24;
73517;PMS5003;61766;60.318;25.044;2022-08-21T15:21:42;21;21;
73517;PMS5003;61766;60.318;25.044;2022-08-21T15:24:07;23;22;
73517;PMS5003;61766;60.318;25.044;2022-08-21T15:26:33;21;21;
73517;PMS5003;61766;60.318;25.044;2022-08-21T15:28:59;22;20;
73517;PMS5003;61766;60.318;25.044;2022-08-21T15:31:24;22;21;
73517;PMS5003;61766;60.318;25.044;2022-08-21T15:33:49;23;22;
73517;PMS5003;61766;60.318;25.044;2022-08-21T15:36:14;21;19;
73517;PMS5003;61766;60.318;25.044;2022-08-21T15:38:40;22;19;
73517;PMS5003;61766;60.318;25.044;2022-08-21T15:41:06;23;21;
73517;PMS5003;61766;60.318;25.044;2022-08-21T15:43:33;21;19;
73517;PMS5003;61766;60.318;25.044;2022-08-21T15:45:57;19;19;
73517;PMS5003;61766;60.318;25.044;2022-08-21T15:48:23;19;18;
73517;PMS5003;61766;60.318;25.044;2022-08-21T15:50:48;20;20;
73517;PMS5003;61766;60.318;25.044;2022-08-21T15:53:13;19;18;
73517;PMS5003;61766;60.318;25.044;2022-08-21T15:55:40;20;18;
73517;PMS5003;61766;60.318;25.044;2022-08-21T15:58:04;22;20;
73517;PMS5003;61766;60.318;25.044;2022-08-21T16:00:30;23;21;
73517;PMS5003;61766;60.318;25.044;2022-08-21T16:02:56;22;20;
73517;PMS5003;61766;60.318;25.044;2022-08-21T16:05:21;20;20;